Time;durP1;ratioP1;P1;durP2;ratioP2;P2;SDS_P1;SDS_P2;PMS_P1;PMS_P2;Temp;Humidity;BMP_temperature;BMP_pressure;BME280_temperature;BME280_humidity;BME280_pressure;Samples;Min_cycle;Max_cycle;Signal;HPM_P1;HPM_P2
2023/10/18 00:00:32;;;;;;;29.50;18.50;;;7.00;99.90;;;;;;5000313;28;20042;-79
2023/10/18 00:03:01;;;;;;;35.35;29.08;;;7.00;99.90;;;;;;4996362;28;20057;-79
2023/10/18 00:05:28;;;;;;;31.40;19.27;;;7.00;99.90;;;;;;4998805;28;20406;-80
2023/10/18 00:07:57;;;;;;;34.72;28.83;;;7.00;99.90;;;;;;4989540;28;20030;-80
2023/10/18 00:10:23;;;;;;;34.58;19.50;;;7.00;99.90;;;;;;5096454;27;20046;-79
2023/10/18 00:12:52;;;;;;;31.58;19.80;;;7.00;99.90;;;;;;4988906;28;20095;-79
2023/10/18 00:15:18;;;;;;;29.67;18.42;;;7.00;99.90;;;;;;4988146;28;20038;-79
2023/10/18 00:17:44;;;;;;;31.17;20.75;;;6.90;99.90;;;;;;5005985;28;20080;-79
2023/10/18 00:20:16;;;;;;;34.63;20.98;;;7.00;99.90;;;;;;5000416;28;20077;-80
2023/10/18 00:22:43;;;;;;;32.47;27.63;;;7.00;99.90;;;;;;4992430;28;20688;-79
2023/10/18 00:25:13;;;;;;;30.70;20.03;;;7.00;99.90;;;;;;5106720;27;20065;-79
2023/10/18 00:27:41;;;;;;;32.30;20.92;;;7.00;99.90;;;;;;4995881;28;20306;-79
2023/10/18 00:30:08;;;;;;;34.53;20.58;;;7.00;99.90;;;;;;4994051;28;20536;-79
2023/10/18 00:32:37;;;;;;;29.88;20.08;;;7.00;99.90;;;;;;5104112;27;20193;-79
2023/10/18 00:35:12;;;;;;;34.75;21.75;;;7.00;99.90;;;;;;5001033;28;20468;-80
2023/10/18 00:37:41;;;;;;;31.30;20.52;;;6.90;99.90;;;;;;4987735;28;20055;-79
2023/10/18 00:40:09;;;;;;;33.50;22.05;;;6.90;99.90;;;;;;4994366;28;20045;-80
2023/10/18 00:42:36;;;;;;;33.58;29.90;;;6.90;99.90;;;;;;5005579;28;20065;-80
2023/10/18 00:45:02;;;;;;;35.38;21.98;;;6.90;99.90;;;;;;4996815;28;20062;-80
2023/10/18 00:47:31;;;;;;;38.53;22.65;;;7.00;99.90;;;;;;5007012;28;20077;-80
2023/10/18 00:49:57;;;;;;;34.00;21.15;;;6.90;99.90;;;;;;4995360;28;20049;-80
2023/10/18 00:52:24;;;;;;;31.98;21.95;;;7.00;99.90;;;;;;4993752;28;20057;-80
2023/10/18 00:54:51;;;;;;;35.72;30.38;;;7.00;99.90;;;;;;5107033;27;20042;-79
2023/10/18 00:57:24;;;;;;;33.42;21.27;;;7.00;99.90;;;;;;4997557;28;20098;-79
2023/10/18 00:59:52;;;;;;;36.35;22.25;;;7.00;99.90;;;;;;5099341;27;20110;-80
2023/10/18 01:02:35;;;;;;;36.13;20.77;;;7.00;99.90;;;;;;5107618;27;20046;-79
2023/10/18 01:05:08;;;;;;;35.60;22.52;;;7.00;99.90;;;;;;4997701;28;20038;-79
2023/10/18 01:07:34;;;;;;;33.13;21.70;;;6.90;99.90;;;;;;4993275;28;20053;-79
2023/10/18 01:09:59;;;;;;;36.15;22.67;;;6.90;99.90;;;;;;4999517;28;20041;-80
2023/10/18 01:12:25;;;;;;;36.45;23.33;;;6.90;99.90;;;;;;5012708;28;20417;-79
2023/10/18 01:14:51;;;;;;;37.88;23.10;;;6.90;99.90;;;;;;5006092;28;20535;-79
2023/10/18 01:17:16;;;;;;;38.20;23.95;;;6.90;99.90;;;;;;5104605;27;20042;-79
2023/10/18 01:19:43;;;;;;;38.70;23.55;;;6.90;99.90;;;;;;5097070;27;20046;-79
2023/10/18 01:22:09;;;;;;;34.00;21.95;;;6.80;99.90;;;;;;5007017;28;20045;-79
2023/10/18 01:24:35;;;;;;;36.40;22.55;;;6.80;99.90;;;;;;5002711;28;20066;-79
2023/10/18 01:27:05;;;;;;;35.17;22.75;;;6.80;99.90;;;;;;5000233;28;20392;-80
2023/10/18 01:29:31;;;;;;;39.97;23.88;;;6.80;99.90;;;;;;5103177;27;20050;-80
2023/10/18 01:31:58;;;;;;;36.57;22.13;;;6.80;99.90;;;;;;4996204;28;20056;-83
2023/10/18 01:34:25;;;;;;;36.72;23.20;;;6.80;99.90;;;;;;5007529;28;20073;-79
2023/10/18 01:36:52;;;;;;;;;;;6.80;99.90;;;;;;5008694;28;20053;-80
2023/10/18 01:39:18;;;;;;;41.45;35.08;;;6.80;99.90;;;;;;5105844;27;19925;-79
2023/10/18 01:41:46;;;;;;;37.20;22.20;;;6.80;99.90;;;;;;4989308;28;20053;-79
2023/10/18 01:44:18;;;;;;;43.00;24.20;;;6.70;99.90;;;;;;4991434;28;20046;-80
2023/10/18 01:46:48;;;;;;;38.35;23.60;;;6.80;99.90;;;;;;4988158;28;20081;-79
2023/10/18 01:49:19;;;;;;;38.25;23.08;;;6.80;99.90;;;;;;5005094;28;20060;-80
2023/10/18 01:51:51;;;;;;;39.08;24.65;;;6.80;99.90;;;;;;4998577;28;20037;-80
2023/10/18 01:54:25;;;;;;;38.47;23.42;;;6.80;99.90;;;;;;5094933;27;20054;-80
2023/10/18 01:56:57;;;;;;;38.88;33.55;;;6.80;99.90;;;;;;4986520;28;20050;-79
2023/10/18 01:59:27;;;;;;;36.78;22.38;;;6.70;99.90;;;;;;5004262;28;20046;-79
2023/10/18 02:01:53;;;;;;;35.38;22.75;;;6.70;99.90;;;;;;5099655;27;20050;-80
2023/10/18 02:04:25;;;;;;;43.72;23.00;;;6.80;99.90;;;;;;4987475;28;20077;-80
2023/10/18 02:06:57;;;;;;;35.78;22.50;;;6.80;99.90;;;;;;4989691;28;20046;-79
2023/10/18 02:09:48;;;;;;;34.05;21.92;;;6.70;99.90;;;;;;4994541;28;20046;-79
2023/10/18 02:12:21;;;;;;;34.95;21.98;;;6.70;99.90;;;;;;5001453;28;20501;-79
2023/10/18 02:14:51;;;;;;;36.03;22.67;;;6.70;99.90;;;;;;4988192;28;20054;-79
2023/10/18 02:17:18;;;;;;;37.58;32.90;;;6.70;99.90;;;;;;4999417;28;20040;-79
2023/10/18 02:19:44;;;;;;;39.17;22.90;;;6.70;99.90;;;;;;5003335;28;20042;-79
2023/10/18 02:22:13;;;;;;;36.67;22.50;;;6.70;99.90;;;;;;4988613;28;20037;-79
2023/10/18 02:24:42;;;;;;;34.65;22.10;;;6.70;99.90;;;;;;4996462;28;20512;-79
2023/10/18 02:27:09;;;;;;;38.90;23.48;;;6.60;99.90;;;;;;4990297;28;20065;-79
2023/10/18 02:29:35;;;;;;;36.42;23.52;;;6.70;99.90;;;;;;5104310;27;20452;-79
2023/10/18 02:34:46;;;;;;;40.25;34.28;;;6.70;99.90;;;;;;4992333;28;20449;-79
2023/10/18 02:37:12;;;;;;;34.13;21.70;;;6.70;99.90;;;;;;5004508;28;20073;-79
2023/10/18 02:39:39;;;;;;;35.20;22.73;;;6.70;99.90;;;;;;5012261;28;20047;-79
2023/10/18 02:42:05;;;;;;;34.80;22.38;;;6.60;99.90;;;;;;5001894;28;20049;-79
2023/10/18 02:44:33;;;;;;;35.97;23.70;;;6.60;99.90;;;;;;5001094;28;20053;-79
2023/10/18 02:47:22;;;;;;;35.90;22.38;;;6.60;99.90;;;;;;4991961;28;20069;-79
2023/10/18 02:49:51;;;;;;;36.45;22.20;;;6.60;99.90;;;;;;4995771;28;20081;-79
2023/10/18 02:52:17;;;;;;;34.83;21.73;;;6.60;99.90;;;;;;4994018;28;20121;-80
2023/10/18 02:54:45;;;;;;;32.80;21.80;;;6.60;99.90;;;;;;4995184;28;20137;-79
2023/10/18 02:57:13;;;;;;;35.80;22.83;;;6.60;99.90;;;;;;5006067;28;20046;-80
2023/10/18 02:59:40;;;;;;;35.00;22.33;;;6.60;99.90;;;;;;5094289;27;20046;-80
2023/10/18 03:02:13;;;;;;;;;;;6.60;99.90;;;;;;5093726;27;20085;-80
2023/10/18 03:04:39;;;;;;;33.88;20.65;;;6.60;99.90;;;;;;4999096;28;19921;-79
2023/10/18 03:07:08;;;;;;;32.13;20.90;;;6.60;99.90;;;;;;4998289;28;20069;-79
2023/10/18 03:12:02;;;;;;;35.83;21.50;;;6.60;99.90;;;;;;5107060;27;20057;-79
2023/10/18 03:15:17;;;;;;;34.25;22.25;;;6.60;99.90;;;;;;5000415;28;20054;-79
2023/10/18 03:17:24;;;;;;;34.22;21.40;;;6.60;99.90;;;;;;5014108;28;20049;-79
2023/10/18 03:19:51;;;;;;;33.47;20.67;;;6.50;99.90;;;;;;4998637;28;20046;-79
2023/10/18 03:22:21;;;;;;;33.90;21.23;;;6.60;99.90;;;;;;4991596;28;20039;-79
2023/10/18 03:24:48;;;;;;;34.03;21.40;;;6.50;99.90;;;;;;5014650;28;20094;-79
2023/10/18 03:27:14;;;;;;;30.67;21.02;;;6.50;99.90;;;;;;4996031;28;20038;-79
2023/10/18 03:29:43;;;;;;;35.63;22.10;;;6.50;99.90;;;;;;4994261;28;20054;-79
2023/10/18 03:32:19;;;;;;;36.20;22.52;;;6.50;99.90;;;;;;5011694;28;20038;-79
2023/10/18 03:34:46;;;;;;;35.25;30.73;;;6.50;99.90;;;;;;4991113;28;20111;-79
2023/10/18 03:37:21;;;;;;;35.70;21.52;;;6.50;99.90;;;;;;4996391;28;20113;-79
2023/10/18 03:39:53;;;;;;;32.42;21.27;;;6.50;99.90;;;;;;4990149;28;20983;-79
2023/10/18 03:42:32;;;;;;;33.53;20.58;;;6.50;99.90;;;;;;4992362;28;20129;-79
2023/10/18 03:45:10;;;;;;;33.13;21.17;;;6.50;99.90;;;;;;5090405;27;20035;-79
2023/10/18 03:47:37;;;;;;;31.52;20.85;;;6.50;99.90;;;;;;4996367;28;20058;-79
2023/10/18 03:50:08;;;;;;;32.50;20.65;;;6.50;99.90;;;;;;5099444;27;20505;-79
2023/10/18 03:52:34;;;;;;;32.35;20.95;;;6.50;99.90;;;;;;4994090;28;20049;-79
2023/10/18 03:55:18;;;;;;;32.78;21.10;;;6.50;99.90;;;;;;4988260;28;20042;-79
2023/10/18 03:57:44;;;;;;;35.17;22.00;;;6.50;99.90;;;;;;4994865;28;20593;-79
2023/10/18 04:02:52;;;;;;;32.80;21.98;;;6.50;99.90;;;;;;4994451;28;20077;-79
2023/10/18 04:08:04;;;;;;;34.42;21.55;;;6.50;99.90;;;;;;4994654;28;20055;-79
2023/10/18 04:10:35;;;;;;;31.70;21.07;;;6.50;99.90;;;;;;4989274;28;20101;-79
2023/10/18 04:13:02;;;;;;;31.48;21.38;;;6.50;99.90;;;;;;4988088;28;20313;-79
2023/10/18 04:15:34;;;;;;;32.30;21.80;;;6.50;99.90;;;;;;4999267;28;20107;-79
2023/10/18 04:18:10;;;;;;;31.77;21.60;;;6.40;99.90;;;;;;5000341;28;20061;-79
2023/10/18 04:20:37;;;;;;;32.55;21.60;;;6.50;99.90;;;;;;4995270;28;20508;-79
2023/10/18 04:23:18;;;;;;;31.83;21.33;;;6.50;99.90;;;;;;4990466;28;20049;-79
2023/10/18 04:25:57;;;;;;;32.13;21.15;;;6.50;99.90;;;;;;5011835;28;20056;-79
2023/10/18 04:28:23;;;;;;;32.70;21.60;;;6.40;99.90;;;;;;4999496;28;20218;-79
2023/10/18 04:30:59;;;;;;;29.93;22.00;;;6.50;99.90;;;;;;5006418;28;20069;-79
2023/10/18 04:33:24;;;;;;;30.90;22.13;;;6.40;99.90;;;;;;4994085;28;20045;-79
2023/10/18 04:35:55;;;;;;;33.30;29.80;;;6.40;99.90;;;;;;5090009;27;20043;-79
2023/10/18 04:38:22;;;;;;;31.15;21.30;;;6.40;99.90;;;;;;4992310;28;20058;-78
2023/10/18 04:43:32;;;;;;;31.95;21.55;;;6.40;99.90;;;;;;4992577;28;20042;-78
2023/10/18 04:45:59;;;;;;;30.23;21.20;;;6.50;99.90;;;;;;5007103;28;20062;-79
2023/10/18 04:49:00;;;;;;;31.77;21.17;;;6.40;99.90;;;;;;4994364;28;20046;-79
2023/10/18 04:51:26;;;;;;;32.63;21.25;;;6.40;99.90;;;;;;5090124;27;20046;-79
2023/10/18 04:54:07;;;;;;;29.27;20.60;;;6.40;99.90;;;;;;4993960;28;20077;-79
2023/10/18 04:56:56;;;;;;;28.73;20.55;;;6.40;99.90;;;;;;5092707;27;20050;-79
2023/10/18 04:59:27;;;;;;;31.85;20.48;;;6.40;99.90;;;;;;4999804;28;21799;-79
2023/10/18 05:04:20;;;;;;;30.20;21.08;;;6.40;99.90;;;;;;5010999;28;20517;-79
2023/10/18 05:06:56;;;;;;;31.67;21.88;;;6.40;99.90;;;;;;4994204;28;20056;-79
2023/10/18 05:09:41;;;;;;;29.95;21.40;;;6.40;99.90;;;;;;4998016;28;20469;-79
2023/10/18 05:17:30;;;;;;;29.48;19.20;;;6.40;99.90;;;;;;5000288;28;20506;-80
2023/10/18 05:19:56;;;;;;;34.05;30.65;;;6.40;99.90;;;;;;4994663;28;20049;-79
2023/10/18 05:22:25;;;;;;;31.38;20.15;;;6.40;99.90;;;;;;4989750;28;20069;-79
2023/10/18 05:27:45;;;;;;;31.13;20.73;;;6.40;99.90;;;;;;4998224;28;20041;-79
2023/10/18 05:30:15;;;;;;;26.67;19.48;;;6.30;99.90;;;;;;5005940;28;20041;-78
2023/10/18 05:33:03;;;;;;;27.77;20.13;;;6.30;99.90;;;;;;4992925;28;20037;-81
2023/10/18 05:45:56;;;;;;;30.25;20.77;;;6.30;99.90;;;;;;5035271;28;20098;-78
2023/10/18 05:48:25;;;;;;;28.05;19.20;;;6.30;99.90;;;;;;4998773;28;20332;-80
2023/10/18 05:51:53;;;;;;;31.33;28.00;;;6.30;99.90;;;;;;4997749;28;20517;-81
2023/10/18 05:53:48;;;;;;;28.63;19.58;;;6.30;99.90;;;;;;5010251;28;20054;-79
2023/10/18 05:56:14;;;;;;;30.52;20.60;;;6.30;99.90;;;;;;4999202;28;20046;-80
2023/10/18 05:58:39;;;;;;;39.78;21.70;;;6.30;99.90;;;;;;5016480;28;20493;-80
2023/10/18 06:01:05;;;;;;;28.73;20.23;;;6.30;99.90;;;;;;5003573;28;20050;-79
2023/10/18 06:03:41;;;;;;;30.05;20.75;;;6.20;99.90;;;;;;5000576;28;20087;-79
2023/10/18 06:06:09;;;;;;;28.63;20.02;;;6.20;99.90;;;;;;4996985;28;20461;-79
2023/10/18 06:08:38;;;;;;;31.95;28.60;;;6.20;99.90;;;;;;4991742;28;20046;-80
2023/10/18 06:11:07;;;;;;;33.53;20.08;;;6.20;99.90;;;;;;5004264;28;20195;-80
2023/10/18 06:13:36;;;;;;;30.08;20.42;;;6.20;99.90;;;;;;5100172;27;20492;-79
2023/10/18 06:16:18;;;;;;;31.15;20.00;;;6.20;99.90;;;;;;5004837;28;20042;-80
2023/10/18 06:18:48;;;;;;;27.92;20.25;;;6.20;99.90;;;;;;5102948;27;20053;-80
2023/10/18 06:21:20;;;;;;;31.38;28.15;;;6.20;99.90;;;;;;4995575;28;20050;-79
2023/10/18 06:23:56;;;;;;;26.75;18.92;;;6.20;99.90;;;;;;5088779;27;20295;-80
2023/10/18 06:26:28;;;;;;;27.63;19.50;;;6.30;99.90;;;;;;5010604;28;20061;-80
2023/10/18 06:29:09;;;;;;;27.80;20.45;;;6.30;99.90;;;;;;5004009;28;20050;-80
2023/10/18 06:31:46;;;;;;;30.40;19.58;;;6.30;99.90;;;;;;5012461;28;20444;-80
2023/10/18 06:34:18;;;;;;;;;;;6.30;99.90;;;;;;5003671;28;20046;-80
2023/10/18 06:36:47;;;;;;;29.80;19.33;;;6.30;99.90;;;;;;4992812;28;19927;-80
2023/10/18 06:39:58;;;;;;;26.92;18.70;;;6.30;99.90;;;;;;4997412;28;20050;-80
2023/10/18 06:42:06;;;;;;;26.85;19.67;;;6.30;99.90;;;;;;4987571;28;20076;-81
2023/10/18 06:44:36;;;;;;;28.13;19.80;;;6.30;99.90;;;;;;5006250;28;20106;-80
2023/10/18 06:47:06;;;;;;;28.48;19.77;;;6.30;99.90;;;;;;4997153;28;20556;-82
2023/10/18 06:49:32;;;;;;;28.50;19.80;;;6.30;99.90;;;;;;4997238;28;20481;-79
2023/10/18 06:52:00;;;;;;;27.15;18.98;;;6.40;99.90;;;;;;5009351;28;20048;-79
2023/10/18 06:54:32;;;;;;;26.60;18.45;;;6.40;99.90;;;;;;5012666;28;20133;-73
2023/10/18 06:57:09;;;;;;;28.08;19.20;;;6.40;99.90;;;;;;5011371;28;20133;-78
2023/10/18 06:59:34;;;;;;;27.30;18.77;;;6.40;99.90;;;;;;4999839;28;20089;-76
2023/10/18 07:02:00;;;;;;;27.25;18.20;;;6.40;99.90;;;;;;4997814;28;20080;-75
2023/10/18 07:04:37;;;;;;;26.25;18.33;;;6.50;99.90;;;;;;5012830;28;20046;-77
2023/10/18 07:07:11;;;;;;;26.45;18.60;;;6.50;99.90;;;;;;5008647;28;20048;-75
2023/10/18 07:09:37;;;;;;;26.52;18.90;;;6.50;99.90;;;;;;4989349;28;20043;-78
2023/10/18 07:12:03;;;;;;;26.50;18.40;;;6.50;99.90;;;;;;4999034;28;20546;-75
2023/10/18 07:14:32;;;;;;;27.80;24.95;;;6.50;99.90;;;;;;5007682;28;20128;-77
2023/10/18 07:17:01;;;;;;;25.45;18.17;;;6.60;99.90;;;;;;4999517;28;20046;-77
2023/10/18 07:19:33;;;;;;;26.90;18.33;;;6.60;99.90;;;;;;5001940;28;20214;-80
2023/10/18 07:22:04;;;;;;;27.77;18.48;;;6.70;99.90;;;;;;5001047;28;20047;-82
2023/10/18 07:24:36;;;;;;;26.33;18.38;;;6.60;99.90;;;;;;5001078;28;20050;-79
2023/10/18 07:27:09;;;;;;;24.80;18.60;;;6.70;99.90;;;;;;5009518;28;20046;-79
2023/10/18 07:29:45;;;;;;;26.83;17.80;;;6.70;99.90;;;;;;4988440;28;20054;-79
2023/10/18 07:32:14;;;;;;;23.47;17.47;;;6.80;99.90;;;;;;4989837;28;20046;-79
2023/10/18 07:34:39;;;;;;;25.00;17.35;;;6.80;99.90;;;;;;4988747;28;20305;-80
2023/10/18 07:37:17;;;;;;;26.70;18.75;;;6.80;99.90;;;;;;5000979;28;20409;-80
2023/10/18 07:39:48;;;;;;;21.85;16.50;;;6.90;99.90;;;;;;4988585;28;20034;-80
2023/10/18 07:42:18;;;;;;;25.70;17.48;;;6.90;99.90;;;;;;4995088;28;20046;-78
2023/10/18 07:44:52;;;;;;;23.70;16.75;;;6.90;99.90;;;;;;4988993;28;20378;-76
2023/10/18 07:47:19;;;;;;;22.27;16.40;;;7.00;99.90;;;;;;4989181;28;20135;-75
2023/10/18 07:49:45;;;;;;;23.58;16.55;;;7.00;99.90;;;;;;4997956;28;20140;-79
2023/10/18 07:52:12;;;;;;;25.35;22.73;;;7.00;99.90;;;;;;5006895;28;20130;-78
2023/10/18 07:54:37;;;;;;;22.07;16.13;;;7.10;99.90;;;;;;5002243;28;20046;-76
2023/10/18 07:57:03;;;;;;;22.75;15.75;;;7.10;99.90;;;;;;5015581;27;20493;-77
2023/10/18 07:59:30;;;;;;;24.25;15.90;;;7.10;99.90;;;;;;4995912;28;20127;-77
2023/10/18 08:04:42;;;;;;;25.20;16.13;;;7.20;99.90;;;;;;5010465;28;20153;-79
2023/10/18 08:07:11;;;;;;;22.48;15.75;;;7.20;99.90;;;;;;4988212;28;20086;-79
2023/10/18 08:09:41;;;;;;;20.55;15.82;;;7.30;99.90;;;;;;5002241;28;20049;-79
2023/10/18 08:12:28;;;;;;;23.85;21.25;;;7.30;99.90;;;;;;5019002;28;20053;-78
2023/10/18 08:14:54;;;;;;;20.55;15.38;;;7.30;99.90;;;;;;5107604;27;20053;-78
2023/10/18 08:17:30;;;;;;;19.83;15.37;;;7.40;99.90;;;;;;4988342;28;20046;-80
2023/10/18 08:22:45;;;;;;;21.60;14.32;;;7.40;99.90;;;;;;4991145;28;20103;-80
2023/10/18 08:25:29;;;;;;;20.95;14.75;;;7.50;99.90;;;;;;4987410;28;20042;-79
2023/10/18 08:27:56;;;;;;;19.23;15.05;;;7.50;99.90;;;;;;4991984;28;20068;-81
2023/10/18 08:33:07;;;;;;;18.92;15.02;;;7.60;99.90;;;;;;5108152;27;20056;-85
2023/10/18 08:35:39;;;;;;;20.17;15.50;;;7.60;99.90;;;;;;5011711;28;20045;-84
2023/10/18 08:38:05;;;;;;;20.52;15.13;;;7.60;99.90;;;;;;4999987;28;20133;-80
2023/10/18 08:43:28;;;;;;;19.00;14.02;;;7.70;99.90;;;;;;5018871;28;20086;-79
2023/10/18 08:45:55;;;;;;;20.42;13.82;;;7.70;99.90;;;;;;5003246;28;20041;-79
2023/10/18 08:48:28;;;;;;;19.67;14.70;;;7.80;99.90;;;;;;5098918;27;20129;-75
2023/10/18 08:50:59;;;;;;;18.52;13.40;;;7.90;99.90;;;;;;5004643;28;20050;-78
2023/10/18 08:53:26;;;;;;;20.60;14.55;;;7.90;99.90;;;;;;4986753;28;20050;-73
2023/10/18 08:55:57;;;;;;;;;;;7.90;99.90;;;;;;4995126;28;20078;-76
2023/10/18 08:58:27;;;;;;;18.33;12.77;;;8.00;99.90;;;;;;4998486;28;19932;-74
2023/10/18 09:03:20;;;;;;;18.90;13.77;;;8.10;99.90;;;;;;5011237;28;20066;-76
2023/10/18 09:05:48;;;;;;;19.10;13.40;;;8.10;99.90;;;;;;4985329;28;20074;-83
2023/10/18 09:08:19;;;;;;;19.80;13.50;;;8.20;99.90;;;;;;5015006;28;20065;-79
2023/10/18 09:10:54;;;;;;;19.77;14.32;;;8.30;99.90;;;;;;5009362;28;20098;-77
2023/10/18 09:16:01;;;;;;;17.30;13.27;;;8.30;99.90;;;;;;5092453;27;20049;-79
2023/10/18 09:18:30;;;;;;;20.17;14.30;;;8.40;99.90;;;;;;5007459;28;20049;-79
2023/10/18 09:23:40;;;;;;;18.48;14.00;;;8.40;99.90;;;;;;5003294;28;20049;-78
2023/10/18 09:28:35;;;;;;;18.30;13.63;;;8.60;99.90;;;;;;4987786;28;20149;-77
2023/10/18 09:31:21;;;;;;;16.83;13.38;;;8.60;99.90;;;;;;4993833;28;20045;-76
2023/10/18 09:33:51;;;;;;;17.48;13.60;;;8.60;99.90;;;;;;5008023;28;20053;-77
2023/10/18 09:36:28;;;;;;;21.20;13.45;;;8.70;99.90;;;;;;5000117;28;20029;-79
2023/10/18 09:38:55;;;;;;;17.95;13.10;;;8.70;99.90;;;;;;5012415;28;20043;-79
2023/10/18 09:41:22;;;;;;;16.70;13.60;;;8.70;99.90;;;;;;4992970;28;20060;-78
2023/10/18 09:43:48;;;;;;;18.23;13.55;;;8.80;99.90;;;;;;4991283;28;20107;-78
2023/10/18 09:46:15;;;;;;;17.42;13.68;;;8.80;99.90;;;;;;5017414;28;20038;-78
2023/10/18 09:48:44;;;;;;;17.38;13.48;;;8.90;99.90;;;;;;5009238;28;20077;-78
2023/10/18 09:51:21;;;;;;;17.25;13.02;;;8.90;99.90;;;;;;4995104;28;20550;-83
2023/10/18 09:53:51;;;;;;;17.95;13.50;;;9.00;99.90;;;;;;5017980;28;20096;-78
2023/10/18 09:56:35;;;;;;;16.20;12.95;;;9.00;99.90;;;;;;4994577;28;20085;-86
2023/10/18 09:59:07;;;;;;;17.02;12.63;;;9.10;99.90;;;;;;5000198;28;20038;-85
2023/10/18 10:04:13;;;;;;;18.35;13.40;;;9.20;99.90;;;;;;5005351;28;20087;-85
2023/10/18 10:06:53;;;;;;;18.48;13.65;;;9.30;99.90;;;;;;5014648;28;20044;-85
2023/10/18 10:09:28;;;;;;;17.20;12.63;;;9.30;99.90;;;;;;4992025;28;20497;-83
2023/10/18 10:11:55;;;;;;;18.40;12.85;;;9.40;99.90;;;;;;4998451;28;20064;-83
2023/10/18 10:14:24;;;;;;;15.88;12.30;;;9.40;99.90;;;;;;5012296;28;20627;-81
2023/10/18 10:17:17;;;;;;;17.15;15.35;;;9.40;99.90;;;;;;5012584;28;20049;-80
2023/10/18 10:19:49;;;;;;;17.83;12.48;;;9.50;99.90;;;;;;5013117;28;20721;-80
2023/10/18 10:22:17;;;;;;;14.93;11.23;;;9.60;99.90;;;;;;5009814;28;20046;-81
2023/10/18 10:24:51;;;;;;;14.95;11.90;;;9.60;99.90;;;;;;4996650;28;20066;-87
2023/10/18 10:27:41;;;;;;;15.98;12.40;;;9.60;99.90;;;;;;5001184;28;20054;-83
2023/10/18 10:32:58;;;;;;;14.75;11.95;;;9.70;99.90;;;;;;5105616;27;20054;-83
2023/10/18 10:35:25;;;;;;;18.25;12.27;;;9.70;99.90;;;;;;5011098;28;20045;-79
2023/10/18 10:37:53;;;;;;;18.65;12.15;;;9.80;99.90;;;;;;4988766;28;20050;-82
2023/10/18 10:43:11;;;;;;;15.57;11.87;;;9.90;99.90;;;;;;5005674;28;20497;-83
2023/10/18 10:50:53;;;;;;;15.23;11.98;;;10.00;99.90;;;;;;5008168;28;20072;-76
2023/10/18 10:53:47;;;;;;;16.15;11.70;;;10.10;99.90;;;;;;5010117;28;20054;-79
2023/10/18 10:56:17;;;;;;;15.80;11.95;;;10.10;99.90;;;;;;4988689;28;20087;-78
2023/10/18 10:58:54;;;;;;;15.88;11.88;;;10.10;99.90;;;;;;5000980;28;20054;-79
2023/10/18 11:01:39;;;;;;;15.07;11.80;;;10.20;99.90;;;;;;5004588;28;20128;-79
2023/10/18 11:04:49;;;;;;;14.35;11.63;;;10.20;99.90;;;;;;4998952;28;20516;-79
2023/10/18 11:07:08;;;;;;;13.70;10.77;;;10.20;99.90;;;;;;4996260;28;20046;-79
2023/10/18 11:09:38;;;;;;;36.25;13.82;;;10.30;99.90;;;;;;5001119;28;20087;-77
2023/10/18 11:12:11;;;;;;;13.85;11.07;;;10.30;99.90;;;;;;4990441;28;20460;-78
2023/10/18 11:14:37;;;;;;;16.25;11.27;;;10.30;99.90;;;;;;5008087;28;22973;-78
2023/10/18 11:19:43;;;;;;;14.80;11.50;;;10.40;99.90;;;;;;4999119;28;20072;-79
2023/10/18 11:22:13;;;;;;;14.07;10.90;;;10.50;99.90;;;;;;4993364;28;20111;-79
2023/10/18 11:24:39;;;;;;;13.93;11.27;;;10.50;99.90;;;;;;4998650;28;20057;-79
2023/10/18 11:27:09;;;;;;;14.50;10.93;;;10.60;99.90;;;;;;5011226;28;20046;-78
2023/10/18 11:29:41;;;;;;;12.75;11.25;;;10.60;99.90;;;;;;5001104;28;20099;-80
2023/10/18 11:32:07;;;;;;;14.45;10.50;;;10.70;99.90;;;;;;5102436;27;20061;-78
2023/10/18 11:34:40;;;;;;;13.85;11.07;;;10.70;99.90;;;;;;5010949;28;20052;-79
2023/10/18 11:37:08;;;;;;;13.10;10.57;;;10.70;99.90;;;;;;5006433;28;20105;-79
2023/10/18 11:39:34;;;;;;;15.30;11.25;;;10.80;99.90;;;;;;5016165;28;20033;-78
2023/10/18 11:42:00;;;;;;;13.95;10.35;;;10.90;99.90;;;;;;5001161;28;20042;-78
2023/10/18 11:44:34;;;;;;;12.95;10.70;;;10.90;99.90;;;;;;4995425;28;20104;-77
2023/10/18 11:47:19;;;;;;;13.88;10.43;;;11.00;99.90;;;;;;5107027;27;20085;-77
2023/10/18 11:49:53;;;;;;;12.88;10.65;;;11.00;99.90;;;;;;5006129;28;20049;-79
2023/10/18 11:52:25;;;;;;;13.20;10.75;;;11.10;99.90;;;;;;5001962;28;20053;-77
2023/10/18 11:54:52;;;;;;;13.43;10.85;;;11.10;99.90;;;;;;5002585;28;20057;-79
2023/10/18 11:57:34;;;;;;;14.57;11.05;;;11.20;99.90;;;;;;5007370;28;20042;-78
2023/10/18 12:00:35;;;;;;;15.93;11.27;;;11.10;99.90;;;;;;5004196;28;20075;-79
2023/10/18 12:02:53;;;;;;;12.25;10.30;;;11.20;99.90;;;;;;4990268;28;20054;-81
2023/10/18 12:05:27;;;;;;;12.70;10.73;;;11.20;99.90;;;;;;5000963;28;20042;-79
2023/10/18 12:07:56;;;;;;;12.85;10.07;;;11.20;99.90;;;;;;4998798;28;20050;-82
2023/10/18 12:10:34;;;;;;;14.40;10.82;;;11.20;99.90;;;;;;4998342;28;20048;-78
2023/10/18 12:13:05;;;;;;;14.38;10.80;;;11.20;99.90;;;;;;5004796;28;20084;-79
2023/10/18 12:15:31;;;;;;;13.00;11.15;;;11.20;99.90;;;;;;5008575;28;20049;-82
2023/10/18 12:17:59;;;;;;;13.73;10.82;;;11.20;99.90;;;;;;5003362;28;20046;-81
2023/10/18 12:20:34;;;;;;;14.02;10.90;;;11.20;99.90;;;;;;4998305;28;20053;-81
2023/10/18 12:23:04;;;;;;;14.43;10.95;;;11.20;99.90;;;;;;4995888;28;20573;-86
2023/10/18 12:25:32;;;;;;;12.40;11.10;;;11.20;99.90;;;;;;5012037;28;20192;-80
2023/10/18 12:28:00;;;;;;;;;;;11.30;99.90;;;;;;4997650;28;20054;-84
2023/10/18 12:30:37;;;;;;;13.65;10.45;;;11.30;99.90;;;;;;4999195;28;20042;-84
2023/10/18 12:33:06;;;;;;;13.48;10.35;;;11.30;99.90;;;;;;5011532;28;20041;-80
2023/10/18 12:35:33;;;;;;;12.88;11.05;;;11.40;99.90;;;;;;5001538;28;20048;-83
2023/10/18 12:37:59;;;;;;;11.52;10.32;;;11.40;99.90;;;;;;5006570;28;20065;-83
2023/10/18 12:42:51;;;;;;;12.20;10.52;;;11.30;99.90;;;;;;5003092;28;20058;-82
2023/10/18 12:45:43;;;;;;;12.60;11.35;;;11.40;99.90;;;;;;5016579;28;20045;-84
2023/10/18 12:48:09;;;;;;;12.50;10.75;;;11.30;99.90;;;;;;5008206;28;20052;-84
2023/10/18 12:50:35;;;;;;;12.88;11.52;;;11.40;99.90;;;;;;4997693;28;20133;-85
2023/10/18 12:55:58;;;;;;;13.82;11.07;;;11.40;99.90;;;;;;5012463;28;20054;-82
2023/10/18 12:58:31;;;;;;;12.93;10.90;;;11.50;99.90;;;;;;5008709;28;20042;-83
2023/10/18 13:01:06;;;;;;;13.65;11.55;;;11.50;99.90;;;;;;4998505;28;20042;-82
2023/10/18 13:03:43;;;;;;;12.77;11.43;;;11.60;99.90;;;;;;4997537;28;20042;-83
2023/10/18 13:06:15;;;;;;;;;;;11.60;99.90;;;;;;4996600;28;20752;-80
2023/10/18 13:08:55;;;;;;;14.27;10.60;;;11.70;99.90;;;;;;4998996;28;19926;-81
2023/10/18 13:14:13;;;;;;;13.02;11.65;;;11.80;99.90;;;;;;4995374;28;20081;-83
2023/10/18 13:16:39;;;;;;;15.68;11.80;;;11.80;99.90;;;;;;5021813;28;20053;-83
2023/10/18 13:19:06;;;;;;;12.43;11.13;;;11.90;99.90;;;;;;4999455;28;20042;-81
2023/10/18 13:21:33;;;;;;;13.03;11.63;;;11.90;99.90;;;;;;5006837;28;20114;-83
2023/10/18 13:27:00;;;;;;;13.77;11.38;;;12.10;99.90;;;;;;5052708;28;20054;-82
2023/10/18 13:29:30;;;;;;;12.77;11.02;;;12.10;99.90;;;;;;4991599;28;20153;-86
2023/10/18 13:32:06;;;;;;;13.30;11.65;;;12.20;99.90;;;;;;4994677;28;20045;-77
2023/10/18 13:34:50;;;;;;;14.02;11.18;;;12.30;99.90;;;;;;4990309;28;20052;-82
2023/10/18 13:37:19;;;;;;;13.63;12.10;;;12.30;99.90;;;;;;4995094;28;20046;-82
2023/10/18 13:39:47;;;;;;;13.20;11.30;;;12.30;99.90;;;;;;4990082;28;20133;-81
2023/10/18 13:42:14;;;;;;;15.43;12.00;;;12.30;99.90;;;;;;4997526;28;20053;-82
2023/10/18 13:44:41;;;;;;;13.43;11.05;;;12.30;99.90;;;;;;5009530;28;20050;-83
2023/10/18 13:47:07;;;;;;;13.73;11.25;;;12.30;99.90;;;;;;5001914;28;20054;-84
2023/10/18 13:49:33;;;;;;;15.05;11.98;;;12.20;99.90;;;;;;5012972;28;20453;-79
2023/10/18 13:51:59;;;;;;;14.30;11.40;;;12.20;99.90;;;;;;5000716;28;20094;-84
2023/10/18 13:54:25;;;;;;;14.32;10.85;;;12.20;99.90;;;;;;4999393;28;20042;-84
2023/10/18 13:56:51;;;;;;;12.60;10.70;;;12.10;99.90;;;;;;5010514;28;20132;-87
2023/10/18 13:59:18;;;;;;;14.70;11.00;;;12.10;99.90;;;;;;5019457;28;20448;-87
2023/10/18 14:01:44;;;;;;;14.18;11.25;;;12.10;99.90;;;;;;5018917;28;20148;-86
2023/10/18 14:04:13;;;;;;;14.13;11.27;;;12.10;99.90;;;;;;5098587;27;20126;-78
2023/10/18 14:06:40;;;;;;;13.70;11.30;;;12.00;99.90;;;;;;5003910;28;20029;-84
2023/10/18 14:09:10;;;;;;;15.27;11.38;;;12.00;99.90;;;;;;4999890;28;20572;-83
2023/10/18 14:11:40;;;;;;;15.27;11.73;;;11.90;99.90;;;;;;4996187;28;20050;-85
2023/10/18 14:14:07;;;;;;;16.92;12.55;;;11.90;99.90;;;;;;4997223;28;20099;-81
2023/10/18 14:16:37;;;;;;;23.55;13.57;;;11.80;99.90;;;;;;4986236;28;20127;-83